createdAt,value
2023-05-09T00:00:06.915Z,13.0
2023-05-09T00:15:02.070Z,13.0
2023-05-09T00:20:16.157Z,12.9
2023-05-09T00:50:00.682Z,12.8
2023-05-09T01:00:02.867Z,12.8
2023-05-09T01:15:01.124Z,12.8
2023-05-09T01:20:00.430Z,12.7
2023-05-09T01:25:00.547Z,12.6
2023-05-09T01:30:00.867Z,12.6
2023-05-09T01:35:01.261Z,12.5
2023-05-09T01:45:00.777Z,12.4
2023-05-09T01:55:01.356Z,12.3
2023-05-09T02:00:00.556Z,12.3
2023-05-09T02:10:00.545Z,12.2
2023-05-09T02:15:00.643Z,12.2
2023-05-09T02:20:00.848Z,12.1
2023-05-09T02:30:00.350Z,12.0
2023-05-09T02:45:00.546Z,12.0
2023-05-09T03:00:00.466Z,12.0
2023-05-09T03:05:01.428Z,12.1
2023-05-09T03:15:00.409Z,12.1
2023-05-09T03:20:02.415Z,12.0
2023-05-09T03:30:01.117Z,11.9
2023-05-09T03:40:01.269Z,11.8
2023-05-09T03:45:00.422Z,11.8
2023-05-09T03:50:00.544Z,11.7
2023-05-09T04:00:03.572Z,11.6
2023-05-09T04:15:00.415Z,11.6
2023-05-09T04:20:00.230Z,11.7
2023-05-09T04:30:05.367Z,11.8
2023-05-09T04:35:00.262Z,11.9
2023-05-09T04:40:00.232Z,12.0
2023-05-09T04:45:00.266Z,12.0
2023-05-09T04:50:00.375Z,12.1
2023-05-09T04:55:00.257Z,12.2
2023-05-09T05:00:00.240Z,12.3
2023-05-09T05:05:10.630Z,12.4
2023-05-09T05:10:00.368Z,12.5
2023-05-09T05:15:00.247Z,12.6
2023-05-09T05:20:00.247Z,12.7
2023-05-09T05:30:00.382Z,12.8
2023-05-09T05:40:00.250Z,12.9
2023-05-09T05:45:00.244Z,13.0
2023-05-09T05:50:00.379Z,13.1
2023-05-09T06:00:00.250Z,13.2
2023-05-09T06:05:00.397Z,13.3
2023-05-09T06:10:00.583Z,13.5
2023-05-09T06:15:00.539Z,13.6
2023-05-09T06:20:15.272Z,13.7
2023-05-09T06:50:02.349Z,15.0
2023-05-09T07:00:03.907Z,15.1
2023-05-09T07:10:11.717Z,15.2
2023-05-09T07:15:01.325Z,15.4
2023-05-09T07:20:02.612Z,15.5
2023-05-09T07:25:01.284Z,15.7
2023-05-09T07:30:01.772Z,15.9
2023-05-09T07:35:02.038Z,16.0
2023-05-09T07:40:01.333Z,16.2
2023-05-09T07:45:01.321Z,16.3
2023-05-09T07:50:01.833Z,16.4
2023-05-09T07:55:01.330Z,16.5
2023-05-09T08:00:16.041Z,16.6
2023-05-09T08:30:01.373Z,17.6
2023-05-09T08:40:01.882Z,17.8
2023-05-09T08:45:02.131Z,17.8
2023-05-09T08:50:01.797Z,18.0
2023-05-09T08:55:01.872Z,18.2
2023-05-09T09:00:03.190Z,18.4
2023-05-09T09:05:06.812Z,18.6
2023-05-09T09:10:01.090Z,18.8
2023-05-09T09:15:01.174Z,18.9
2023-05-09T09:20:16.524Z,19.1
2023-05-09T09:50:01.133Z,20.1
2023-05-09T10:00:02.670Z,20.2
2023-05-09T10:05:01.066Z,20.3
2023-05-09T10:10:01.052Z,20.4
2023-05-09T10:15:01.101Z,20.5
2023-05-09T10:20:01.001Z,20.7
2023-05-09T10:25:01.060Z,20.8
2023-05-09T10:30:01.078Z,21.0
2023-05-09T10:35:01.215Z,21.2
2023-05-09T10:40:01.915Z,21.3
2023-05-09T10:45:01.320Z,21.4
2023-05-09T10:50:01.075Z,21.6
2023-05-09T11:00:04.312Z,21.7
2023-05-09T11:05:01.889Z,21.8
2023-05-09T11:10:01.066Z,22.0
2023-05-09T11:15:01.674Z,22.1
2023-05-09T11:20:00.931Z,22.3
2023-05-09T11:25:13.138Z,22.5
2023-05-09T11:30:01.838Z,22.6
2023-05-09T11:40:01.007Z,22.7
2023-05-09T11:45:02.279Z,22.7
2023-05-09T11:50:01.010Z,22.8
2023-05-09T11:55:02.031Z,22.9
2023-05-09T12:00:16.030Z,23.0
2023-05-09T12:30:01.520Z,23.6
2023-05-09T12:45:01.531Z,23.6
2023-05-09T12:55:01.446Z,23.5
2023-05-09T13:00:04.970Z,23.4
2023-05-09T13:10:01.336Z,23.3
2023-05-09T13:15:01.575Z,23.3
2023-05-09T13:20:02.179Z,23.2
2023-05-09T13:30:02.147Z,23.2
2023-05-09T13:35:02.429Z,23.3
2023-05-09T13:40:01.322Z,23.2
2023-05-09T13:45:01.416Z,23.2
2023-05-09T13:50:01.291Z,23.1
2023-05-09T13:55:01.487Z,22.9
2023-05-09T14:00:03.320Z,22.8
2023-05-09T14:05:01.369Z,22.6
2023-05-09T14:15:01.488Z,22.6
2023-05-09T14:20:01.279Z,22.7
2023-05-09T14:25:01.415Z,22.8
2023-05-09T14:30:01.819Z,23.0
2023-05-09T14:35:16.281Z,23.1
2023-05-09T15:00:13.007Z,24.0
2023-05-09T15:10:00.744Z,23.6
2023-05-09T15:15:01.103Z,23.5
2023-05-09T15:20:00.709Z,23.3
2023-05-09T15:25:00.931Z,23.1
2023-05-09T15:30:00.883Z,22.8
2023-05-09T15:35:00.813Z,22.7
2023-05-09T15:45:01.801Z,22.7
2023-05-09T15:55:01.480Z,22.8
2023-05-09T16:00:04.424Z,23.1
2023-05-09T16:05:00.714Z,23.2
2023-05-09T16:10:02.198Z,23.4
2023-05-09T16:15:00.703Z,23.5
2023-05-09T16:20:00.772Z,23.7
2023-05-09T16:25:00.699Z,23.8
2023-05-09T16:30:01.400Z,23.8
2023-05-09T16:35:00.759Z,23.9
2023-05-09T16:45:01.498Z,23.7
2023-05-09T17:00:02.455Z,23.5
2023-05-09T17:05:02.785Z,23.4
2023-05-09T17:10:00.621Z,23.1
2023-05-09T17:15:00.626Z,22.6
2023-05-09T17:20:01.587Z,22.1
2023-05-09T17:25:01.646Z,21.7
2023-05-09T17:30:01.661Z,21.2
2023-05-09T17:35:00.706Z,21.0
2023-05-09T17:40:00.640Z,20.7
2023-05-09T17:45:00.772Z,20.5
2023-05-09T17:50:00.956Z,20.2
2023-05-09T17:55:00.895Z,20.1
2023-05-09T18:00:05.297Z,19.9
2023-05-09T18:05:00.887Z,19.7
2023-05-09T18:10:00.971Z,19.4
2023-05-09T18:15:00.705Z,19.3
2023-05-09T18:20:01.620Z,19.1
2023-05-09T18:25:00.674Z,18.9
2023-05-09T18:30:01.727Z,18.8
2023-05-09T18:35:15.573Z,18.7
2023-05-09T19:00:04.440Z,17.4
2023-05-09T19:10:01.765Z,17.3
2023-05-09T19:15:00.809Z,17.2
2023-05-09T19:20:00.825Z,17.1
2023-05-09T19:25:01.008Z,17.0
2023-05-09T19:30:00.685Z,16.9
2023-05-09T19:35:01.212Z,16.8
2023-05-09T19:40:00.708Z,16.6
2023-05-09T19:45:00.852Z,16.6
2023-05-09T19:50:00.942Z,16.5
2023-05-09T19:55:00.762Z,16.4
2023-05-09T20:00:01.099Z,16.3
2023-05-09T20:05:01.880Z,16.2
2023-05-09T20:15:00.903Z,16.1
2023-05-09T20:20:00.714Z,16.0
2023-05-09T20:25:00.759Z,15.9
2023-05-09T20:30:01.101Z,15.9
2023-05-09T20:35:00.759Z,15.8
2023-05-09T20:40:00.727Z,15.7
2023-05-09T20:45:00.823Z,15.7
2023-05-09T20:50:01.627Z,15.6
2023-05-09T20:55:00.833Z,15.5
2023-05-09T21:00:03.012Z,15.5
2023-05-09T21:05:00.786Z,15.4
2023-05-09T21:10:00.708Z,15.3
2023-05-09T21:15:00.974Z,15.3
2023-05-09T21:20:01.193Z,15.2
2023-05-09T21:30:00.781Z,15.1
2023-05-09T21:35:00.779Z,15.0
2023-05-09T21:45:01.593Z,14.9
2023-05-09T22:00:01.115Z,14.8
2023-05-09T22:05:01.780Z,14.7
2023-05-09T22:10:00.729Z,14.6
2023-05-09T22:15:00.785Z,14.6
2023-05-09T22:20:07.541Z,14.5
2023-05-09T22:25:01.819Z,14.6
2023-05-09T22:30:01.749Z,14.6
2023-05-09T22:35:00.850Z,14.7
2023-05-09T22:40:00.852Z,14.8
2023-05-09T22:45:00.831Z,14.8
2023-05-09T22:55:01.824Z,14.9
2023-05-09T23:00:02.913Z,14.9
2023-05-09T23:15:15.586Z,14.9
2023-05-09T23:25:15.533Z,14.8
2023-05-09T23:30:00.684Z,14.8
2023-05-09T23:45:15.596Z,14.7
